Rach Gia, Viet Nam

4:38 PM ICT on September 03, 2015 (GMT +0700)
Tra Noc | | Change Station
CLOSE
Current Station
Airport
Location: Can Tho Airfield,
Elevation: 7 ft
Nearby Weather Stations

Elev 7 ft 10.09 °N, 105.71 °E | Updated 8 minutes ago

Partly Cloudy
Partly Cloudy
91 °F
Feels Like 102 °F
N
6
Wind Variable Wind from South

Today
High -- | Low -- °F
--% Chance of Precip.
Yesterday
High -- | Low -- °F
Precip. -- in
5:50 AM 6:07 PM
Waning Gibbous, 72% visible
Pressure 29.77 in
Visibility 5.0 miles
Clouds Scattered Clouds 1500 ft
Few 1700 ft
Heat Index 102 °F
Dew Point 75 °F
Humidity 59%
Rainfall 0.00 in
Snow Depth Not available.
UV 2 out of 12
Pollen Not available.
Air Quality Not available.
Flu Activity Not available.
METAR VVCT 030930Z 19005KT 180V350 8000 SCT015 FEW017TCU 33/24 Q1008 NOSIG TCU/OVER RWY
Pressure 29.77 in
Visibility 5.0 miles
Clouds Scattered Clouds 1500 ft
Few 1700 ft
Heat Index 102 °F
Dew Point 75 °F
Humidity 59%
Rainfall 0.00 in
Snow Depth Not available.
UV 2 out of 12
Pollen Not available.
Air Quality Not available.
Flu Activity Not available.
METAR VVCT 030930Z 19005KT 180V350 8000 SCT015 FEW017TCU 33/24 Q1008 NOSIG TCU/OVER RWY

10-Day Weather Forecast

×

Almanac

Astronomy

Sep. 03, 2015 Rise Set
Actual Time
Civil Twilight
Nautical Twilight
Astronomical Twilight
Moon
Length of Visible Light
Length of Day
Tomorrow will be .
, % of the Moon is Illuminated

Today's Extremes

Country Highs Country Lows

Community

WunderPhotos

Upload Photos

1,851,923 photos uploaded!

WunderBlogs® & News

Nearby

Air Quality

  Air Quality AQ Index Pollutant
Not available.

Snow Depth

Station Depth Elevation

Earthquake Activity

City Distance Mag. Time & Date
Minimum magnitude displayed is 2.5.

Coastal Water Temperatures

Place Temperature

Stations

Nearby Weather Stations

Station Location Temp. Windchill Dew Point Humidity Wind Precip. Elev Updated Type